sensor_id;sensor_type;location;lat;lon;timestamp;pressure;altitude;pressure_sealevel;temperature;humidity
56330;BME280;42236;48.058;10.632;2024-01-27T00:02:43;96218.66;;;3.58;100.00
56330;BME280;42236;48.058;10.632;2024-01-27T00:05:29;96225.63;;;3.64;100.00
56330;BME280;42236;48.058;10.632;2024-01-27T00:08:15;96218.72;;;3.68;100.00
56330;BME280;42236;48.058;10.632;2024-01-27T00:11:00;96227.84;;;3.72;100.00
56330;BME280;42236;48.058;10.632;2024-01-27T00:13:46;96231.03;;;3.74;100.00
56330;BME280;42236;48.058;10.632;2024-01-27T00:16:32;96238.50;;;3.72;100.00
56330;BME280;42236;48.058;10.632;2024-01-27T00:19:17;96242.22;;;3.71;100.00
56330;BME280;42236;48.058;10.632;2024-01-27T00:22:03;96231.56;;;3.71;100.00
56330;BME280;42236;48.058;10.632;2024-01-27T00:24:49;96239.53;;;3.66;100.00
56330;BME280;42236;48.058;10.632;2024-01-27T00:27:34;96234.13;;;3.56;100.00
56330;BME280;42236;48.058;10.632;2024-01-27T00:30:20;96239.69;;;3.49;100.00
56330;BME280;42236;48.058;10.632;2024-01-27T00:33:06;96242.59;;;3.48;100.00
56330;BME280;42236;48.058;10.632;2024-01-27T00:35:52;96232.44;;;3.45;100.00
56330;BME280;42236;48.058;10.632;2024-01-27T00:38:37;96225.50;;;3.44;100.00
56330;BME280;42236;48.058;10.632;2024-01-27T00:41:24;96230.84;;;3.44;100.00
56330;BME280;42236;48.058;10.632;2024-01-27T00:44:10;96232.94;;;3.41;100.00
56330;BME280;42236;48.058;10.632;2024-01-27T00:46:56;96237.97;;;3.38;100.00
56330;BME280;42236;48.058;10.632;2024-01-27T00:49:42;96245.16;;;3.32;100.00
56330;BME280;42236;48.058;10.632;2024-01-27T00:52:27;96249.88;;;3.25;100.00
56330;BME280;42236;48.058;10.632;2024-01-27T00:55:13;96247.19;;;3.20;100.00
56330;BME280;42236;48.058;10.632;2024-01-27T00:57:59;96254.34;;;3.14;100.00
56330;BME280;42236;48.058;10.632;2024-01-27T01:00:45;96257.25;;;3.13;100.00
56330;BME280;42236;48.058;10.632;2024-01-27T01:03:31;96254.56;;;3.13;100.00
56330;BME280;42236;48.058;10.632;2024-01-27T01:06:17;96252.47;;;3.15;100.00
56330;BME280;42236;48.058;10.632;2024-01-27T01:09:02;96251.34;;;3.11;100.00
56330;BME280;42236;48.058;10.632;2024-01-27T01:11:48;96254.22;;;3.04;100.00
56330;BME280;42236;48.058;10.632;2024-01-27T01:14:34;96263.81;;;3.00;100.00
56330;BME280;42236;48.058;10.632;2024-01-27T01:17:20;96275.44;;;2.94;100.00
56330;BME280;42236;48.058;10.632;2024-01-27T01:20:16;96284.19;;;2.89;100.00
56330;BME280;42236;48.058;10.632;2024-01-27T01:23:05;96287.41;;;2.91;100.00
56330;BME280;42236;48.058;10.632;2024-01-27T01:25:50;96293.25;;;2.88;100.00
56330;BME280;42236;48.058;10.632;2024-01-27T01:28:36;96291.63;;;2.87;100.00
56330;BME280;42236;48.058;10.632;2024-01-27T01:31:22;96289.53;;;2.89;100.00
56330;BME280;42236;48.058;10.632;2024-01-27T01:34:08;96294.38;;;2.92;100.00
56330;BME280;42236;48.058;10.632;2024-01-27T01:36:54;96288.72;;;2.89;100.00
56330;BME280;42236;48.058;10.632;2024-01-27T01:39:40;96280.63;;;2.78;100.00
56330;BME280;42236;48.058;10.632;2024-01-27T01:42:26;96286.19;;;2.77;100.00
56330;BME280;42236;48.058;10.632;2024-01-27T01:45:11;96287.50;;;2.74;100.00
56330;BME280;42236;48.058;10.632;2024-01-27T01:48:00;96281.63;;;2.72;100.00
56330;BME280;42236;48.058;10.632;2024-01-27T01:50:46;96285.84;;;2.68;100.00
56330;BME280;42236;48.058;10.632;2024-01-27T01:53:33;96293.53;;;2.65;100.00
56330;BME280;42236;48.058;10.632;2024-01-27T01:56:18;96296.63;;;2.56;100.00
56330;BME280;42236;48.058;10.632;2024-01-27T01:59:04;96301.56;;;2.48;100.00
56330;BME280;42236;48.058;10.632;2024-01-27T02:01:50;96295.06;;;2.39;100.00
56330;BME280;42236;48.058;10.632;2024-01-27T02:04:42;96297.91;;;2.32;100.00
56330;BME280;42236;48.058;10.632;2024-01-27T02:07:31;96301.06;;;2.29;100.00
56330;BME280;42236;48.058;10.632;2024-01-27T02:10:17;96305.53;;;2.23;100.00
56330;BME280;42236;48.058;10.632;2024-01-27T02:13:23;96304.66;;;2.18;100.00
56330;BME280;42236;48.058;10.632;2024-01-27T02:16:09;96304.75;;;2.06;100.00
56330;BME280;42236;48.058;10.632;2024-01-27T02:18:55;96307.09;;;2.02;100.00
56330;BME280;42236;48.058;10.632;2024-01-27T02:21:41;96298.00;;;1.98;100.00
56330;BME280;42236;48.058;10.632;2024-01-27T02:24:27;96302.75;;;1.96;100.00
56330;BME280;42236;48.058;10.632;2024-01-27T02:27:13;96308.88;;;1.97;100.00
56330;BME280;42236;48.058;10.632;2024-01-27T02:29:59;96308.09;;;1.96;100.00
56330;BME280;42236;48.058;10.632;2024-01-27T02:32:45;96311.56;;;1.97;100.00
56330;BME280;42236;48.058;10.632;2024-01-27T02:35:31;96309.13;;;1.95;100.00
56330;BME280;42236;48.058;10.632;2024-01-27T02:38:17;96312.84;;;1.94;100.00
56330;BME280;42236;48.058;10.632;2024-01-27T02:41:02;96326.94;;;1.95;100.00
56330;BME280;42236;48.058;10.632;2024-01-27T02:43:48;96328.25;;;1.92;100.00
56330;BME280;42236;48.058;10.632;2024-01-27T02:46:34;96331.97;;;1.91;100.00
56330;BME280;42236;48.058;10.632;2024-01-27T02:49:19;96333.22;;;1.88;100.00
56330;BME280;42236;48.058;10.632;2024-01-27T02:52:05;96332.44;;;1.88;100.00
56330;BME280;42236;48.058;10.632;2024-01-27T02:54:51;96337.75;;;1.88;100.00
56330;BME280;42236;48.058;10.632;2024-01-27T02:57:37;96341.97;;;1.84;100.00
56330;BME280;42236;48.058;10.632;2024-01-27T03:00:22;96349.53;;;1.75;100.00
56330;BME280;42236;48.058;10.632;2024-01-27T03:03:09;96343.06;;;1.54;100.00
56330;BME280;42236;48.058;10.632;2024-01-27T03:05:55;96344.84;;;1.48;100.00
56330;BME280;42236;48.058;10.632;2024-01-27T03:08:41;96346.13;;;1.46;100.00
56330;BME280;42236;48.058;10.632;2024-01-27T03:11:27;96354.13;;;1.46;100.00
56330;BME280;42236;48.058;10.632;2024-01-27T03:14:12;96350.41;;;1.47;100.00
56330;BME280;42236;48.058;10.632;2024-01-27T03:16:58;96353.41;;;1.51;100.00
56330;BME280;42236;48.058;10.632;2024-01-27T03:19:44;96355.00;;;1.52;100.00
56330;BME280;42236;48.058;10.632;2024-01-27T03:22:30;96358.94;;;1.49;100.00
56330;BME280;42236;48.058;10.632;2024-01-27T03:25:15;96354.34;;;1.44;100.00
56330;BME280;42236;48.058;10.632;2024-01-27T03:28:01;96354.59;;;1.43;100.00
56330;BME280;42236;48.058;10.632;2024-01-27T03:30:47;96354.03;;;1.41;100.00
56330;BME280;42236;48.058;10.632;2024-01-27T03:33:33;96359.50;;;1.34;100.00
56330;BME280;42236;48.058;10.632;2024-01-27T03:36:18;96361.34;;;1.34;100.00
56330;BME280;42236;48.058;10.632;2024-01-27T03:39:05;96363.91;;;1.28;100.00
56330;BME280;42236;48.058;10.632;2024-01-27T03:41:51;96370.44;;;1.21;100.00
56330;BME280;42236;48.058;10.632;2024-01-27T03:44:36;96370.56;;;1.14;100.00
56330;BME280;42236;48.058;10.632;2024-01-27T03:47:22;96366.28;;;1.13;100.00
56330;BME280;42236;48.058;10.632;2024-01-27T03:50:08;96371.13;;;1.16;100.00
56330;BME280;42236;48.058;10.632;2024-01-27T03:52:54;96380.81;;;1.22;100.00
56330;BME280;42236;48.058;10.632;2024-01-27T03:55:40;96370.75;;;1.24;100.00
56330;BME280;42236;48.058;10.632;2024-01-27T03:58:25;96375.59;;;1.27;100.00
56330;BME280;42236;48.058;10.632;2024-01-27T04:01:11;96368.19;;;1.30;100.00
56330;BME280;42236;48.058;10.632;2024-01-27T04:04:00;96368.19;;;1.30;100.00
56330;BME280;42236;48.058;10.632;2024-01-27T04:06:46;96363.66;;;1.30;100.00
56330;BME280;42236;48.058;10.632;2024-01-27T04:09:32;96368.66;;;1.26;100.00
56330;BME280;42236;48.058;10.632;2024-01-27T04:12:18;96366.94;;;1.20;100.00
56330;BME280;42236;48.058;10.632;2024-01-27T04:15:26;96361.53;;;1.15;100.00
56330;BME280;42236;48.058;10.632;2024-01-27T04:18:12;96373.13;;;1.09;100.00
56330;BME280;42236;48.058;10.632;2024-01-27T04:20:57;96367.72;;;1.04;100.00
56330;BME280;42236;48.058;10.632;2024-01-27T04:23:43;96372.91;;;0.99;100.00
56330;BME280;42236;48.058;10.632;2024-01-27T04:26:29;96372.72;;;0.89;100.00
56330;BME280;42236;48.058;10.632;2024-01-27T04:29:14;96364.38;;;0.68;100.00
56330;BME280;42236;48.058;10.632;2024-01-27T04:32:00;96375.81;;;0.57;100.00
56330;BME280;42236;48.058;10.632;2024-01-27T04:34:46;96380.22;;;0.51;100.00
56330;BME280;42236;48.058;10.632;2024-01-27T04:37:32;96385.16;;;0.48;100.00
56330;BME280;42236;48.058;10.632;2024-01-27T04:40:17;96390.47;;;0.48;100.00
56330;BME280;42236;48.058;10.632;2024-01-27T04:43:03;96394.41;;;0.45;100.00
56330;BME280;42236;48.058;10.632;2024-01-27T04:45:49;96390.94;;;0.45;100.00
56330;BME280;42236;48.058;10.632;2024-01-27T04:48:35;96390.38;;;0.42;100.00
56330;BME280;42236;48.058;10.632;2024-01-27T04:51:21;96385.06;;;0.42;100.00
56330;BME280;42236;48.058;10.632;2024-01-27T04:54:07;96383.47;;;0.41;100.00
56330;BME280;42236;48.058;10.632;2024-01-27T04:56:54;96386.34;;;0.40;100.00
56330;BME280;42236;48.058;10.632;2024-01-27T04:59:39;96395.34;;;0.39;100.00
56330;BME280;42236;48.058;10.632;2024-01-27T05:02:26;96387.81;;;0.36;100.00
56330;BME280;42236;48.058;10.632;2024-01-27T05:05:11;96400.78;;;0.32;100.00
56330;BME280;42236;48.058;10.632;2024-01-27T05:07:57;96402.25;;;0.28;100.00
56330;BME280;42236;48.058;10.632;2024-01-27T05:10:43;96391.91;;;0.27;100.00
56330;BME280;42236;48.058;10.632;2024-01-27T05:13:29;96395.34;;;0.27;100.00
56330;BME280;42236;48.058;10.632;2024-01-27T05:16:14;96399.59;;;0.28;100.00
56330;BME280;42236;48.058;10.632;2024-01-27T05:19:03;96399.72;;;0.21;100.00
56330;BME280;42236;48.058;10.632;2024-01-27T05:21:48;96395.56;;;0.14;100.00
56330;BME280;42236;48.058;10.632;2024-01-27T05:24:34;96399.03;;;0.14;100.00
56330;BME280;42236;48.058;10.632;2024-01-27T05:27:20;96402.94;;;0.12;100.00
56330;BME280;42236;48.058;10.632;2024-01-27T05:30:06;96405.50;;;0.07;100.00
56330;BME280;42236;48.058;10.632;2024-01-27T05:32:52;96408.59;;;0.04;100.00
56330;BME280;42236;48.058;10.632;2024-01-27T05:35:37;96400.88;;;0.02;100.00
56330;BME280;42236;48.058;10.632;2024-01-27T05:38:23;96402.13;;;-0.01;100.00
56330;BME280;42236;48.058;10.632;2024-01-27T05:41:11;96399.38;;;-0.06;100.00
56330;BME280;42236;48.058;10.632;2024-01-27T05:43:57;96401.69;;;-0.09;100.00
56330;BME280;42236;48.058;10.632;2024-01-27T05:46:42;96398.66;;;-0.13;100.00
56330;BME280;42236;48.058;10.632;2024-01-27T05:49:28;96398.91;;;-0.14;100.00
56330;BME280;42236;48.058;10.632;2024-01-27T05:52:14;96410.53;;;-0.15;100.00
56330;BME280;42236;48.058;10.632;2024-01-27T05:54:59;96410.78;;;-0.17;100.00
56330;BME280;42236;48.058;10.632;2024-01-27T05:57:45;96416.91;;;-0.16;100.00
56330;BME280;42236;48.058;10.632;2024-01-27T06:00:31;96414.47;;;-0.18;100.00
56330;BME280;42236;48.058;10.632;2024-01-27T06:03:16;96417.13;;;-0.18;100.00
56330;BME280;42236;48.058;10.632;2024-01-27T06:06:02;96415.50;;;-0.19;100.00
56330;BME280;42236;48.058;10.632;2024-01-27T06:08:49;96416.19;;;-0.24;100.00
56330;BME280;42236;48.058;10.632;2024-01-27T06:11:34;96415.22;;;-0.29;100.00
56330;BME280;42236;48.058;10.632;2024-01-27T06:14:20;96427.09;;;-0.32;100.00
56330;BME280;42236;48.058;10.632;2024-01-27T06:17:06;96424.69;;;-0.33;100.00
56330;BME280;42236;48.058;10.632;2024-01-27T06:19:51;96418.22;;;-0.37;100.00
56330;BME280;42236;48.058;10.632;2024-01-27T06:22:37;96424.78;;;-0.40;100.00
56330;BME280;42236;48.058;10.632;2024-01-27T06:25:23;96426.50;;;-0.46;100.00
56330;BME280;42236;48.058;10.632;2024-01-27T06:28:08;96423.28;;;-0.48;100.00
56330;BME280;42236;48.058;10.632;2024-01-27T06:30:54;96434.91;;;-0.49;100.00
56330;BME280;42236;48.058;10.632;2024-01-27T06:33:40;96437.19;;;-0.52;100.00
56330;BME280;42236;48.058;10.632;2024-01-27T06:36:26;96438.09;;;-0.58;100.00
56330;BME280;42236;48.058;10.632;2024-01-27T06:39:12;96442.25;;;-0.62;100.00
56330;BME280;42236;48.058;10.632;2024-01-27T06:41:58;96446.72;;;-0.63;100.00
56330;BME280;42236;48.058;10.632;2024-01-27T06:44:44;96439.81;;;-0.64;100.00
56330;BME280;42236;48.058;10.632;2024-01-27T06:47:29;96437.03;;;-0.69;100.00
56330;BME280;42236;48.058;10.632;2024-01-27T06:50:15;96437.47;;;-0.72;100.00
56330;BME280;42236;48.058;10.632;2024-01-27T06:53:01;96443.19;;;-0.75;100.00
56330;BME280;42236;48.058;10.632;2024-01-27T06:55:47;96446.44;;;-0.73;100.00
56330;BME280;42236;48.058;10.632;2024-01-27T06:58:32;96453.81;;;-0.75;100.00
56330;BME280;42236;48.058;10.632;2024-01-27T07:01:18;96462.59;;;-0.75;100.00
56330;BME280;42236;48.058;10.632;2024-01-27T07:04:04;96467.66;;;-0.73;100.00
56330;BME280;42236;48.058;10.632;2024-01-27T07:06:50;96466.63;;;-0.72;100.00
56330;BME280;42236;48.058;10.632;2024-01-27T07:09:36;96464.13;;;-0.67;100.00
56330;BME280;42236;48.058;10.632;2024-01-27T07:12:22;96448.56;;;-0.63;100.00
56330;BME280;42236;48.058;10.632;2024-01-27T07:15:08;96466.31;;;-0.64;100.00
56330;BME280;42236;48.058;10.632;2024-01-27T07:17:54;96471.41;;;-0.62;100.00
56330;BME280;42236;48.058;10.632;2024-01-27T07:20:40;96476.44;;;-0.61;100.00
56330;BME280;42236;48.058;10.632;2024-01-27T07:23:26;96465.03;;;-0.61;100.00
56330;BME280;42236;48.058;10.632;2024-01-27T07:26:12;96468.75;;;-0.62;100.00
56330;BME280;42236;48.058;10.632;2024-01-27T07:28:58;96474.84;;;-0.62;100.00
56330;BME280;42236;48.058;10.632;2024-01-27T07:31:43;96483.38;;;-0.60;100.00
56330;BME280;42236;48.058;10.632;2024-01-27T07:34:29;96470.47;;;-0.56;100.00
56330;BME280;42236;48.058;10.632;2024-01-27T07:37:15;96471.88;;;-0.54;100.00
56330;BME280;42236;48.058;10.632;2024-01-27T07:40:00;96473.06;;;-0.50;100.00
56330;BME280;42236;48.058;10.632;2024-01-27T07:42:46;96479.28;;;-0.44;100.00
56330;BME280;42236;48.058;10.632;2024-01-27T07:45:32;96483.91;;;-0.39;100.00
56330;BME280;42236;48.058;10.632;2024-01-27T07:48:17;96487.97;;;-0.37;100.00
56330;BME280;42236;48.058;10.632;2024-01-27T07:51:03;96484.63;;;-0.32;100.00
56330;BME280;42236;48.058;10.632;2024-01-27T07:53:49;96487.41;;;-0.27;100.00
56330;BME280;42236;48.058;10.632;2024-01-27T07:56:35;96489.06;;;-0.26;100.00
56330;BME280;42236;48.058;10.632;2024-01-27T07:59:21;96479.84;;;-0.24;100.00
56330;BME280;42236;48.058;10.632;2024-01-27T08:02:07;96485.25;;;-0.18;100.00
56330;BME280;42236;48.058;10.632;2024-01-27T08:04:53;96493.69;;;-0.10;100.00
56330;BME280;42236;48.058;10.632;2024-01-27T08:07:38;96492.59;;;-0.02;100.00
56330;BME280;42236;48.058;10.632;2024-01-27T08:10:24;96490.06;;;0.03;100.00
56330;BME280;42236;48.058;10.632;2024-01-27T08:13:10;96486.47;;;0.09;100.00
56330;BME280;42236;48.058;10.632;2024-01-27T08:15:56;96492.72;;;0.15;100.00
56330;BME280;42236;48.058;10.632;2024-01-27T08:18:42;96494.47;;;0.21;100.00
56330;BME280;42236;48.058;10.632;2024-01-27T08:21:29;96492.75;;;0.27;100.00
56330;BME280;42236;48.058;10.632;2024-01-27T08:24:15;96488.84;;;0.29;100.00
56330;BME280;42236;48.058;10.632;2024-01-27T08:27:01;96489.16;;;0.33;100.00
56330;BME280;42236;48.058;10.632;2024-01-27T08:29:47;96486.03;;;0.36;100.00
56330;BME280;42236;48.058;10.632;2024-01-27T08:32:33;96485.94;;;0.42;100.00
56330;BME280;42236;48.058;10.632;2024-01-27T08:35:19;96485.59;;;0.51;100.00
56330;BME280;42236;48.058;10.632;2024-01-27T08:38:05;96479.16;;;0.58;100.00
56330;BME280;42236;48.058;10.632;2024-01-27T08:40:51;96480.16;;;0.69;100.00
56330;BME280;42236;48.058;10.632;2024-01-27T08:43:37;96478.78;;;0.78;100.00
56330;BME280;42236;48.058;10.632;2024-01-27T08:46:25;96479.47;;;0.85;100.00
56330;BME280;42236;48.058;10.632;2024-01-27T08:49:11;96476.91;;;0.91;100.00
56330;BME280;42236;48.058;10.632;2024-01-27T08:51:57;96478.19;;;1.00;100.00
56330;BME280;42236;48.058;10.632;2024-01-27T08:54:43;96479.88;;;1.06;100.00
56330;BME280;42236;48.058;10.632;2024-01-27T08:57:31;96485.09;;;1.13;100.00
56330;BME280;42236;48.058;10.632;2024-01-27T09:00:17;96494.78;;;1.19;100.00
56330;BME280;42236;48.058;10.632;2024-01-27T09:03:03;96497.78;;;1.22;100.00
56330;BME280;42236;48.058;10.632;2024-01-27T09:05:49;96493.59;;;1.26;100.00
56330;BME280;42236;48.058;10.632;2024-01-27T09:08:35;96497.75;;;1.34;100.00
56330;BME280;42236;48.058;10.632;2024-01-27T09:11:21;96488.84;;;1.40;100.00
56330;BME280;42236;48.058;10.632;2024-01-27T09:14:12;96500.16;;;1.47;100.00
56330;BME280;42236;48.058;10.632;2024-01-27T09:16:58;96499.91;;;1.49;100.00
56330;BME280;42236;48.058;10.632;2024-01-27T09:19:44;96504.72;;;1.52;100.00
56330;BME280;42236;48.058;10.632;2024-01-27T09:22:29;96498.69;;;1.57;100.00
56330;BME280;42236;48.058;10.632;2024-01-27T09:25:15;96504.94;;;1.62;100.00
56330;BME280;42236;48.058;10.632;2024-01-27T09:28:01;96503.97;;;1.68;100.00
56330;BME280;42236;48.058;10.632;2024-01-27T09:30:49;96508.38;;;1.75;100.00
56330;BME280;42236;48.058;10.632;2024-01-27T09:33:35;96507.41;;;1.81;100.00
56330;BME280;42236;48.058;10.632;2024-01-27T09:36:21;96517.34;;;1.85;100.00
56330;BME280;42236;48.058;10.632;2024-01-27T09:39:07;96513.38;;;1.88;100.00
56330;BME280;42236;48.058;10.632;2024-01-27T09:41:54;96510.28;;;1.91;100.00
56330;BME280;42236;48.058;10.632;2024-01-27T09:44:44;96510.34;;;1.96;100.00
56330;BME280;42236;48.058;10.632;2024-01-27T09:47:31;96512.53;;;1.99;100.00
56330;BME280;42236;48.058;10.632;2024-01-27T09:50:17;96505.69;;;2.03;100.00
56330;BME280;42236;48.058;10.632;2024-01-27T09:53:03;96518.28;;;2.08;100.00
56330;BME280;42236;48.058;10.632;2024-01-27T09:55:53;96515.00;;;2.18;100.00
56330;BME280;42236;48.058;10.632;2024-01-27T09:58:42;96516.19;;;2.27;100.00
56330;BME280;42236;48.058;10.632;2024-01-27T10:01:27;96507.81;;;2.35;100.00
56330;BME280;42236;48.058;10.632;2024-01-27T10:04:14;96511.94;;;2.43;100.00
56330;BME280;42236;48.058;10.632;2024-01-27T10:07:00;96515.00;;;2.51;100.00
56330;BME280;42236;48.058;10.632;2024-01-27T10:09:49;96509.75;;;2.56;100.00
56330;BME280;42236;48.058;10.632;2024-01-27T10:12:40;96516.19;;;2.61;100.00
56330;BME280;42236;48.058;10.632;2024-01-27T10:15:26;96508.28;;;2.66;100.00
56330;BME280;42236;48.058;10.632;2024-01-27T10:18:13;96507.31;;;2.72;100.00
56330;BME280;42236;48.058;10.632;2024-01-27T10:21:15;96507.66;;;2.75;100.00
56330;BME280;42236;48.058;10.632;2024-01-27T10:24:01;96517.31;;;2.82;100.00
56330;BME280;42236;48.058;10.632;2024-01-27T10:26:51;96507.28;;;2.89;100.00
56330;BME280;42236;48.058;10.632;2024-01-27T10:29:37;96506.31;;;2.95;100.00
56330;BME280;42236;48.058;10.632;2024-01-27T10:32:22;96513.03;;;2.97;100.00
56330;BME280;42236;48.058;10.632;2024-01-27T10:35:14;96506.63;;;2.98;100.00
56330;BME280;42236;48.058;10.632;2024-01-27T10:38:00;96509.13;;;3.05;100.00
56330;BME280;42236;48.058;10.632;2024-01-27T10:40:46;96505.72;;;3.10;100.00
56330;BME280;42236;48.058;10.632;2024-01-27T10:43:31;96510.06;;;3.16;100.00
56330;BME280;42236;48.058;10.632;2024-01-27T10:46:19;96505.28;;;3.18;100.00
56330;BME280;42236;48.058;10.632;2024-01-27T10:49:07;96499.22;;;3.23;99.20
56330;BME280;42236;48.058;10.632;2024-01-27T10:51:55;96497.91;;;3.25;100.00
56330;BME280;42236;48.058;10.632;2024-01-27T10:54:43;96495.56;;;3.29;100.00
56330;BME280;42236;48.058;10.632;2024-01-27T10:57:31;96495.88;;;3.32;100.00
56330;BME280;42236;48.058;10.632;2024-01-27T11:00:18;96483.38;;;3.38;100.00
56330;BME280;42236;48.058;10.632;2024-01-27T11:03:06;96484.50;;;3.42;100.00
56330;BME280;42236;48.058;10.632;2024-01-27T11:05:54;96484.84;;;3.46;100.00
56330;BME280;42236;48.058;10.632;2024-01-27T11:08:41;96485.94;;;3.50;100.00
56330;BME280;42236;48.058;10.632;2024-01-27T11:11:27;96490.78;;;3.53;100.00
56330;BME280;42236;48.058;10.632;2024-01-27T11:14:13;96491.88;;;3.57;100.00
56330;BME280;42236;48.058;10.632;2024-01-27T11:16:59;96487.66;;;3.61;99.73
56330;BME280;42236;48.058;10.632;2024-01-27T11:19:45;96489.84;;;3.64;97.75
56330;BME280;42236;48.058;10.632;2024-01-27T11:22:31;96486.66;;;3.67;98.81
56330;BME280;42236;48.058;10.632;2024-01-27T11:25:18;96493.91;;;3.72;97.63
56330;BME280;42236;48.058;10.632;2024-01-27T11:28:15;96492.59;;;3.74;95.76
56330;BME280;42236;48.058;10.632;2024-01-27T11:31:07;96488.38;;;3.78;97.40
56330;BME280;42236;48.058;10.632;2024-01-27T11:33:53;96485.75;;;3.83;97.54
56330;BME280;42236;48.058;10.632;2024-01-27T11:36:40;96487.13;;;3.86;96.43
56330;BME280;42236;48.058;10.632;2024-01-27T11:39:28;96478.88;;;3.88;97.84
56330;BME280;42236;48.058;10.632;2024-01-27T11:42:14;96488.00;;;3.92;98.41
56330;BME280;42236;48.058;10.632;2024-01-27T11:45:02;96492.59;;;3.96;95.66
56330;BME280;42236;48.058;10.632;2024-01-27T11:47:48;96486.72;;;3.99;97.79
56330;BME280;42236;48.058;10.632;2024-01-27T11:50:33;96478.44;;;4.01;95.55
56330;BME280;42236;48.058;10.632;2024-01-27T11:53:19;96478.25;;;4.07;96.05
56330;BME280;42236;48.058;10.632;2024-01-27T11:56:05;96471.13;;;4.13;96.16
56330;BME280;42236;48.058;10.632;2024-01-27T11:58:51;96467.94;;;4.16;94.71
56330;BME280;42236;48.058;10.632;2024-01-27T12:01:37;96480.22;;;4.17;92.94
56330;BME280;42236;48.058;10.632;2024-01-27T12:04:24;96467.97;;;4.21;93.46
56330;BME280;42236;48.058;10.632;2024-01-27T12:07:10;96471.19;;;4.23;94.73
56330;BME280;42236;48.058;10.632;2024-01-27T12:09:56;96465.88;;;4.28;91.75
56330;BME280;42236;48.058;10.632;2024-01-27T12:12:42;96459.78;;;4.33;91.69
56330;BME280;42236;48.058;10.632;2024-01-27T12:15:27;96465.41;;;4.37;91.86
56330;BME280;42236;48.058;10.632;2024-01-27T12:18:13;96462.50;;;4.38;89.52
56330;BME280;42236;48.058;10.632;2024-01-27T12:20:59;96462.78;;;4.42;91.78
56330;BME280;42236;48.058;10.632;2024-01-27T12:23:56;96460.94;;;4.42;87.87
56330;BME280;42236;48.058;10.632;2024-01-27T12:26:42;96467.31;;;4.41;89.39
56330;BME280;42236;48.058;10.632;2024-01-27T12:29:27;96469.19;;;4.41;90.68
56330;BME280;42236;48.058;10.632;2024-01-27T12:32:14;96448.88;;;4.40;91.43
56330;BME280;42236;48.058;10.632;2024-01-27T12:35:07;96456.38;;;4.43;90.55
56330;BME280;42236;48.058;10.632;2024-01-27T12:37:53;96451.06;;;4.48;91.55
56330;BME280;42236;48.058;10.632;2024-01-27T12:40:39;96451.09;;;4.53;91.81
56330;BME280;42236;48.058;10.632;2024-01-27T12:43:25;96443.63;;;4.55;90.90
56330;BME280;42236;48.058;10.632;2024-01-27T12:46:10;96438.09;;;4.62;90.67
56330;BME280;42236;48.058;10.632;2024-01-27T12:48:57;96427.66;;;4.65;89.84
56330;BME280;42236;48.058;10.632;2024-01-27T12:51:43;96425.53;;;4.67;89.93
56330;BME280;42236;48.058;10.632;2024-01-27T12:54:31;96422.34;;;4.70;88.87
56330;BME280;42236;48.058;10.632;2024-01-27T12:57:17;96421.28;;;4.72;88.43
56330;BME280;42236;48.058;10.632;2024-01-27T13:00:04;96413.81;;;4.74;87.82
56330;BME280;42236;48.058;10.632;2024-01-27T13:02:55;96410.63;;;4.77;89.32
56330;BME280;42236;48.058;10.632;2024-01-27T13:05:40;96407.44;;;4.80;90.33
56330;BME280;42236;48.058;10.632;2024-01-27T13:08:26;96398.31;;;4.81;88.56
56330;BME280;42236;48.058;10.632;2024-01-27T13:11:12;96385.50;;;4.83;87.99
56330;BME280;42236;48.058;10.632;2024-01-27T13:13:58;96382.59;;;4.84;86.57
56330;BME280;42236;48.058;10.632;2024-01-27T13:16:47;96391.94;;;4.87;87.70
56330;BME280;42236;48.058;10.632;2024-01-27T13:19:32;96386.59;;;4.87;84.83
56330;BME280;42236;48.058;10.632;2024-01-27T13:22:18;96381.56;;;4.90;82.98
56330;BME280;42236;48.058;10.632;2024-01-27T13:25:06;96366.56;;;4.95;85.25
56330;BME280;42236;48.058;10.632;2024-01-27T13:27:52;96369.56;;;4.98;85.25
56330;BME280;42236;48.058;10.632;2024-01-27T13:30:38;96356.72;;;5.00;85.22
56330;BME280;42236;48.058;10.632;2024-01-27T13:33:23;96358.31;;;5.01;85.56
56330;BME280;42236;48.058;10.632;2024-01-27T13:36:09;96358.31;;;5.01;84.94
56330;BME280;42236;48.058;10.632;2024-01-27T13:38:55;96359.13;;;5.02;84.20
56330;BME280;42236;48.058;10.632;2024-01-27T13:41:40;96364.75;;;5.05;82.74
56330;BME280;42236;48.058;10.632;2024-01-27T13:44:26;96362.09;;;5.05;80.94
56330;BME280;42236;48.058;10.632;2024-01-27T13:47:12;96362.34;;;5.09;82.85
56330;BME280;42236;48.058;10.632;2024-01-27T13:49:58;96356.22;;;5.13;85.29
56330;BME280;42236;48.058;10.632;2024-01-27T13:52:43;96355.13;;;5.14;84.09
56330;BME280;42236;48.058;10.632;2024-01-27T13:55:31;96355.44;;;5.18;83.37
56330;BME280;42236;48.058;10.632;2024-01-27T13:58:18;96363.22;;;5.20;83.47
56330;BME280;42236;48.058;10.632;2024-01-27T14:01:03;96364.00;;;5.20;82.33
56330;BME280;42236;48.058;10.632;2024-01-27T14:03:49;96368.03;;;5.23;84.33
56330;BME280;42236;48.058;10.632;2024-01-27T14:06:35;96374.97;;;5.24;84.21
56330;BME280;42236;48.058;10.632;2024-01-27T14:09:22;96380.06;;;5.25;84.01
56330;BME280;42236;48.058;10.632;2024-01-27T14:12:08;96387.00;;;5.26;84.15
56330;BME280;42236;48.058;10.632;2024-01-27T14:15:03;96377.13;;;5.27;81.85
56330;BME280;42236;48.058;10.632;2024-01-27T14:17:50;96372.31;;;5.29;83.09
56330;BME280;42236;48.058;10.632;2024-01-27T14:20:35;96378.19;;;5.31;82.40
56330;BME280;42236;48.058;10.632;2024-01-27T14:23:22;96382.75;;;5.30;83.16
56330;BME280;42236;48.058;10.632;2024-01-27T14:26:08;96372.59;;;5.32;82.74
56330;BME280;42236;48.058;10.632;2024-01-27T14:29:00;96378.50;;;5.34;82.47
56330;BME280;42236;48.058;10.632;2024-01-27T14:31:45;96385.19;;;5.37;78.69